createdAt,value
2017-02-21T00:00:59.202Z,16.63
2017-02-21T00:02:09.008Z,16.66
2017-02-21T00:03:18.770Z,16.61
2017-02-21T00:04:28.093Z,16.68
2017-02-21T00:05:37.868Z,16.63
2017-02-21T00:06:47.662Z,16.64
2017-02-21T00:07:58.075Z,16.61
2017-02-21T00:09:07.392Z,16.67
2017-02-21T00:10:16.733Z,16.64
2017-02-21T00:11:26.938Z,16.64
2017-02-21T00:12:36.271Z,16.61
2017-02-21T00:13:45.889Z,16.57
2017-02-21T00:14:55.681Z,16.61
2017-02-21T00:16:04.991Z,16.64
2017-02-21T00:17:14.772Z,16.64
2017-02-21T00:18:24.097Z,16.53
2017-02-21T00:19:33.902Z,16.56
2017-02-21T00:20:43.224Z,16.52
2017-02-21T00:21:52.992Z,16.53
2017-02-21T00:23:02.326Z,16.49
2017-02-21T00:24:11.647Z,16.5
2017-02-21T00:25:21.004Z,16.56
2017-02-21T00:26:30.349Z,16.5
2017-02-21T00:27:40.565Z,16.48
2017-02-21T00:28:50.783Z,16.52
2017-02-21T00:30:00.105Z,16.52
2017-02-21T00:31:09.926Z,16.5
2017-02-21T00:32:19.728Z,16.58
2017-02-21T00:33:29.064Z,16.61
2017-02-21T00:34:38.400Z,16.61
2017-02-21T00:35:48.171Z,16.5
2017-02-21T00:36:58.079Z,16.48
2017-02-21T00:38:07.836Z,16.56
2017-02-21T00:39:17.146Z,16.48
2017-02-21T00:40:26.455Z,16.53
2017-02-21T00:41:37.098Z,16.5
2017-02-21T00:42:46.905Z,16.48
2017-02-21T00:43:56.230Z,16.58
2017-02-21T00:45:05.992Z,16.52
2017-02-21T00:46:15.313Z,16.53
2017-02-21T00:47:24.627Z,16.42
2017-02-21T00:48:33.991Z,16.46
2017-02-21T00:49:43.337Z,16.45
2017-02-21T00:50:53.109Z,16.5
2017-02-21T00:52:02.867Z,16.5
2017-02-21T00:53:12.196Z,16.53
2017-02-21T00:54:21.578Z,16.46
2017-02-21T00:55:30.902Z,16.48
2017-02-21T00:56:40.684Z,16.46
2017-02-21T00:57:50.025Z,16.53
2017-02-21T00:58:59.342Z,16.49
2017-02-21T01:00:08.716Z,16.56
2017-02-21T01:01:18.052Z,16.5
2017-02-21T01:02:27.814Z,16.52
2017-02-21T01:03:37.130Z,16.46
2017-02-21T01:04:46.944Z,16.49
2017-02-21T01:05:57.189Z,16.49
2017-02-21T01:07:06.959Z,16.48
2017-02-21T01:08:16.736Z,16.46
2017-02-21T01:09:26.517Z,16.43
2017-02-21T01:10:35.850Z,16.5
2017-02-21T01:11:46.103Z,16.5
2017-02-21T01:12:56.757Z,16.48
2017-02-21T01:14:06.093Z,16.48
2017-02-21T01:15:16.319Z,16.43
2017-02-21T01:16:25.646Z,16.48
2017-02-21T01:17:35.521Z,16.38
2017-02-21T01:18:45.279Z,16.48
2017-02-21T01:19:55.035Z,16.48
2017-02-21T01:21:04.356Z,16.42
2017-02-21T01:22:14.114Z,16.41
2017-02-21T01:23:23.499Z,16.41
2017-02-21T01:24:33.289Z,16.39
2017-02-21T01:25:43.048Z,16.39
2017-02-21T01:26:53.254Z,16.38
2017-02-21T01:28:03.056Z,16.46
2017-02-21T01:29:12.860Z,16.41
2017-02-21T01:30:22.181Z,16.39
2017-02-21T01:31:31.996Z,16.42
2017-02-21T01:32:41.307Z,16.41
2017-02-21T01:33:51.101Z,16.42
2017-02-21T01:35:00.522Z,16.38
2017-02-21T01:36:09.836Z,16.39
2017-02-21T01:37:19.193Z,16.5
2017-02-21T01:38:28.527Z,16.42
2017-02-21T01:39:37.845Z,16.46
2017-02-21T01:40:47.224Z,16.35
2017-02-21T01:41:56.998Z,16.45
2017-02-21T01:43:06.335Z,16.41
2017-02-21T01:44:15.650Z,16.35
2017-02-21T01:45:25.394Z,16.39
2017-02-21T01:46:34.963Z,16.41
2017-02-21T01:47:44.303Z,16.43
2017-02-21T01:48:54.097Z,16.39
2017-02-21T01:50:03.862Z,16.34
2017-02-21T01:51:13.173Z,16.38
2017-02-21T01:52:22.988Z,16.39
2017-02-21T01:53:32.330Z,16.38
2017-02-21T01:54:41.651Z,16.42
2017-02-21T01:55:50.964Z,16.35
2017-02-21T01:57:00.294Z,16.41
2017-02-21T01:58:09.662Z,16.31
2017-02-21T01:59:18.971Z,16.38
2017-02-21T02:00:28.287Z,16.39
2017-02-21T02:01:38.089Z,16.31
2017-02-21T02:02:47.867Z,16.41
2017-02-21T02:03:57.248Z,16.41
2017-02-21T02:05:06.578Z,16.35
2017-02-21T02:06:16.792Z,16.38
2017-02-21T02:07:27.447Z,16.38
2017-02-21T02:08:37.232Z,16.35
2017-02-21T02:09:47.186Z,16.35
2017-02-21T02:10:56.511Z,16.34
2017-02-21T02:12:06.709Z,16.33
2017-02-21T02:13:16.036Z,16.33
2017-02-21T02:14:25.802Z,16.34
2017-02-21T02:15:35.185Z,16.34
2017-02-21T02:16:44.532Z,16.34
2017-02-21T02:17:53.854Z,16.28
2017-02-21T02:19:03.199Z,16.33
2017-02-21T02:20:12.961Z,16.39
2017-02-21T02:21:22.321Z,16.34
2017-02-21T02:22:32.082Z,16.33
2017-02-21T02:23:41.427Z,16.28
2017-02-21T02:24:50.737Z,16.27
2017-02-21T02:26:00.498Z,16.38
2017-02-21T02:27:09.911Z,16.25
2017-02-21T02:28:20.121Z,16.38
2017-02-21T02:29:29.877Z,16.34
2017-02-21T02:30:39.187Z,16.33
2017-02-21T02:31:48.536Z,16.33
2017-02-21T02:32:57.901Z,16.35
2017-02-21T02:34:07.236Z,16.28
2017-02-21T02:35:17.015Z,16.23
2017-02-21T02:36:26.404Z,16.25
2017-02-21T02:37:35.720Z,16.38
2017-02-21T02:38:45.954Z,16.34
2017-02-21T02:39:56.580Z,16.31
2017-02-21T02:41:06.809Z,16.3
2017-02-21T02:42:17.031Z,16.23
2017-02-21T02:43:26.787Z,16.34
2017-02-21T02:44:36.600Z,16.38
2017-02-21T02:45:46.353Z,16.31
2017-02-21T02:46:55.669Z,16.24
2017-02-21T02:48:05.851Z,16.3
2017-02-21T02:49:16.060Z,16.34
2017-02-21T02:50:25.422Z,16.23
2017-02-21T02:51:35.167Z,16.25
2017-02-21T02:52:45.353Z,16.34
2017-02-21T02:53:55.105Z,16.34
2017-02-21T02:55:04.451Z,16.34
2017-02-21T02:56:15.126Z,16.33
2017-02-21T02:57:24.893Z,16.23
2017-02-21T02:58:34.636Z,16.2
2017-02-21T02:59:44.397Z,16.3
2017-02-21T03:00:54.596Z,16.3
2017-02-21T03:02:04.402Z,16.23
2017-02-21T03:03:13.734Z,16.24
2017-02-21T03:04:23.514Z,16.25
2017-02-21T03:05:33.312Z,16.33
2017-02-21T03:06:43.078Z,16.21
2017-02-21T03:07:53.043Z,16.25
2017-02-21T03:09:02.796Z,16.17
2017-02-21T03:10:12.554Z,16.3
2017-02-21T03:11:22.750Z,16.2
2017-02-21T03:12:32.530Z,16.24
2017-02-21T03:13:42.536Z,16.25
2017-02-21T03:14:52.286Z,16.17
2017-02-21T03:16:01.631Z,16.23
2017-02-21T03:17:11.412Z,16.23
2017-02-21T03:18:20.725Z,16.21
2017-02-21T03:19:30.538Z,16.27
2017-02-21T03:20:39.876Z,16.28
2017-02-21T03:21:49.673Z,16.25
2017-02-21T03:22:59.016Z,16.24
2017-02-21T03:24:09.645Z,16.23
2017-02-21T03:25:19.452Z,16.24
2017-02-21T03:26:29.228Z,16.23
2017-02-21T03:27:38.533Z,16.25
2017-02-21T03:28:47.850Z,16.15
2017-02-21T03:29:57.596Z,16.21
2017-02-21T03:31:07.006Z,16.23
2017-02-21T03:32:17.627Z,16.27
2017-02-21T03:33:26.940Z,16.27
2017-02-21T03:34:36.693Z,16.25
2017-02-21T03:35:46.446Z,16.24
2017-02-21T03:36:56.699Z,16.24
2017-02-21T03:38:07.348Z,16.24
2017-02-21T03:39:17.102Z,16.23
2017-02-21T03:40:26.871Z,16.17
2017-02-21T03:41:36.655Z,16.2
2017-02-21T03:42:46.909Z,16.21
2017-02-21T03:43:56.259Z,16.17
2017-02-21T03:45:06.023Z,16.23
2017-02-21T03:46:15.797Z,16.23
2017-02-21T03:47:25.529Z,16.17
2017-02-21T03:48:35.770Z,16.15
2017-02-21T03:49:45.536Z,16.15
2017-02-21T03:50:54.860Z,16.21
2017-02-21T03:52:05.062Z,16.17
2017-02-21T03:53:14.810Z,16.17
2017-02-21T03:54:24.611Z,16.23
2017-02-21T03:55:34.367Z,16.17
2017-02-21T03:56:44.116Z,16.17
2017-02-21T03:57:53.880Z,16.15
2017-02-21T03:59:03.190Z,16.14
2017-02-21T04:00:12.566Z,16.14
2017-02-21T04:01:21.894Z,16.17
2017-02-21T04:02:31.213Z,16.2
2017-02-21T04:03:40.522Z,16.11
2017-02-21T04:04:49.861Z,16.2
2017-02-21T04:05:59.347Z,16.24
2017-02-21T04:07:09.990Z,16.2
2017-02-21T04:08:19.310Z,16.12
2017-02-21T04:09:29.926Z,16.12
2017-02-21T04:10:39.680Z,16.12
2017-02-21T04:11:49.485Z,16.12
2017-02-21T04:12:59.690Z,16.08
2017-02-21T04:14:09.879Z,16.09
2017-02-21T04:15:19.187Z,16.08
2017-02-21T04:16:28.939Z,16.11
2017-02-21T04:17:38.733Z,16.07
2017-02-21T04:18:49.806Z,16.08
2017-02-21T04:19:59.584Z,16.08
2017-02-21T04:21:09.772Z,16.14
2017-02-21T04:22:19.107Z,16.07
2017-02-21T04:23:28.479Z,16.11
2017-02-21T04:24:37.791Z,16.08
2017-02-21T04:25:47.557Z,16.11
2017-02-21T04:26:57.766Z,16.08
2017-02-21T04:28:07.966Z,16.14
2017-02-21T04:29:17.804Z,16.12
2017-02-21T04:30:27.632Z,16.11
2017-02-21T04:31:37.830Z,16.11
2017-02-21T04:32:48.026Z,16.07
2017-02-21T04:33:58.209Z,16.04
2017-02-21T04:35:08.569Z,16.12
2017-02-21T04:36:18.776Z,16.15
2017-02-21T04:37:28.969Z,16.15
2017-02-21T04:38:39.158Z,16.04
2017-02-21T04:39:48.477Z,16.04
2017-02-21T04:40:58.284Z,16.12
2017-02-21T04:42:08.037Z,16.17
2017-02-21T04:43:17.366Z,16.07
2017-02-21T04:44:27.568Z,16.09
2017-02-21T04:45:36.885Z,16.11
2017-02-21T04:46:46.706Z,16.11
2017-02-21T04:47:56.470Z,16.09
2017-02-21T04:49:06.263Z,16.02
2017-02-21T04:50:16.437Z,16.09
2017-02-21T04:51:25.761Z,16.01
2017-02-21T04:52:36.448Z,16.01
2017-02-21T04:53:46.641Z,16.04
2017-02-21T04:54:55.994Z,16.08
2017-02-21T04:56:05.311Z,16.05
2017-02-21T04:57:14.643Z,16.04
2017-02-21T04:58:24.976Z,16.05
2017-02-21T04:59:35.599Z,16.02
2017-02-21T05:00:45.347Z,16.05
2017-02-21T05:01:55.541Z,16.02
2017-02-21T05:03:05.291Z,16.08
2017-02-21T05:04:15.100Z,16.05
2017-02-21T05:05:24.848Z,15.96
2017-02-21T05:06:34.170Z,15.96
2017-02-21T05:07:44.374Z,16
2017-02-21T05:08:54.120Z,15.97
2017-02-21T05:10:03.918Z,15.94
2017-02-21T05:11:13.249Z,16
2017-02-21T05:12:22.988Z,15.93
2017-02-21T05:13:32.781Z,16.01
2017-02-21T05:14:42.965Z,15.97
2017-02-21T05:15:53.657Z,15.97
2017-02-21T05:17:02.964Z,15.96
2017-02-21T05:18:12.281Z,15.97
2017-02-21T05:19:22.046Z,15.94
2017-02-21T05:20:32.228Z,15.97
2017-02-21T05:21:42.041Z,15.92
2017-02-21T05:22:51.393Z,16.02
2017-02-21T05:24:01.143Z,16
2017-02-21T05:25:10.924Z,16.01
2017-02-21T05:26:20.729Z,16.05
2017-02-21T05:27:30.963Z,16.04
2017-02-21T05:28:40.292Z,15.94
2017-02-21T05:29:49.610Z,16
2017-02-21T05:30:59.809Z,16.01
2017-02-21T05:32:09.994Z,16.04
2017-02-21T05:33:20.233Z,15.96
2017-02-21T05:34:30.850Z,15.96
2017-02-21T05:35:40.635Z,15.97
2017-02-21T05:36:49.948Z,16.05
2017-02-21T05:37:59.269Z,15.97
2017-02-21T05:39:09.063Z,15.92
2017-02-21T05:40:19.271Z,15.92
2017-02-21T05:41:29.944Z,16
2017-02-21T05:42:40.129Z,16
2017-02-21T05:43:49.880Z,15.97
2017-02-21T05:44:59.687Z,15.94
2017-02-21T05:46:09.878Z,15.97
2017-02-21T05:47:19.191Z,15.94
2017-02-21T05:48:28.952Z,15.96
2017-02-21T05:49:38.260Z,16.02
2017-02-21T05:50:48.079Z,16.08
2017-02-21T05:51:57.388Z,16.01
2017-02-21T05:53:07.140Z,16.14
2017-02-21T05:54:16.888Z,16.09
2017-02-21T05:55:27.523Z,16.12
2017-02-21T05:56:36.897Z,16.05
2017-02-21T05:57:46.254Z,16.09
2017-02-21T05:58:55.579Z,16.12
2017-02-21T06:00:04.911Z,16.12
2017-02-21T06:01:15.116Z,16.04
2017-02-21T06:02:24.922Z,16.08
2017-02-21T06:03:34.708Z,16.11
2017-02-21T06:04:44.912Z,16.11
2017-02-21T06:05:54.234Z,16.17
2017-02-21T06:07:03.565Z,16.07
2017-02-21T06:08:13.395Z,16.2
2017-02-21T06:09:23.144Z,16.15
2017-02-21T06:10:33.340Z,16.21
2017-02-21T06:11:43.095Z,16.21
2017-02-21T06:12:53.725Z,16.25
2017-02-21T06:14:03.524Z,16.2
2017-02-21T06:15:13.287Z,16.17
2017-02-21T06:16:23.043Z,16.23
2017-02-21T06:17:33.246Z,16.2
2017-02-21T06:18:42.599Z,16.23
2017-02-21T06:19:52.396Z,16.25
2017-02-21T06:21:02.183Z,16.3
2017-02-21T06:22:11.507Z,16.21
2017-02-21T06:23:21.726Z,16.24
2017-02-21T06:24:31.915Z,16.2
2017-02-21T06:25:41.305Z,16.28
2017-02-21T06:26:50.626Z,16.21
2017-02-21T06:28:00.379Z,16.27
2017-02-21T06:29:11.001Z,16.27
2017-02-21T06:30:21.194Z,16.21
2017-02-21T06:31:30.586Z,16.21
2017-02-21T06:32:40.332Z,16.2
2017-02-21T06:33:50.530Z,16.21
2017-02-21T06:35:00.279Z,16.25
2017-02-21T06:36:09.604Z,16.2
2017-02-21T06:37:19.445Z,16.28
2017-02-21T06:38:28.759Z,16.24
2017-02-21T06:39:38.938Z,16.17
2017-02-21T06:40:48.693Z,16.25
2017-02-21T06:41:58.468Z,16.23
2017-02-21T06:43:07.982Z,16.25
2017-02-21T06:44:17.301Z,16.24
2017-02-21T06:45:27.490Z,16.2
2017-02-21T06:46:36.807Z,16.25
2017-02-21T06:47:46.566Z,16.27
2017-02-21T06:48:56.813Z,16.28
2017-02-21T06:50:06.134Z,16.23
2017-02-21T06:51:15.895Z,16.27
2017-02-21T06:52:25.660Z,16.27
2017-02-21T06:53:35.420Z,16.25
2017-02-21T06:54:45.669Z,16.25
2017-02-21T06:55:55.855Z,16.33
2017-02-21T06:57:05.187Z,16.23
2017-02-21T06:58:15.374Z,16.23
2017-02-21T06:59:25.127Z,16.31
2017-02-21T07:00:35.001Z,16.17
2017-02-21T07:01:44.764Z,16.31
2017-02-21T07:02:55.411Z,16.15
2017-02-21T07:04:04.748Z,16.27
2017-02-21T07:05:14.514Z,16.2
2017-02-21T07:06:24.367Z,16.24
2017-02-21T07:07:33.679Z,16.24
2017-02-21T07:08:43.001Z,16.34
2017-02-21T07:09:52.769Z,16.38
2017-02-21T07:11:02.535Z,16.35
2017-02-21T07:12:12.344Z,16.35
2017-02-21T07:13:22.098Z,16.41
2017-02-21T07:14:31.868Z,16.34
2017-02-21T07:15:41.188Z,16.33
2017-02-21T07:16:50.501Z,16.3
2017-02-21T07:18:00.302Z,16.34
2017-02-21T07:19:09.648Z,16.31
2017-02-21T07:20:19.409Z,16.34
2017-02-21T07:21:28.738Z,16.3
2017-02-21T07:22:38.913Z,16.33
2017-02-21T07:23:49.167Z,16.34
2017-02-21T07:24:59.361Z,16.3
2017-02-21T07:26:09.126Z,16.28
2017-02-21T07:27:18.451Z,16.35
2017-02-21T07:28:27.772Z,16.34
2017-02-21T07:29:37.689Z,16.31
2017-02-21T07:30:47.442Z,16.33
2017-02-21T07:31:57.189Z,16.38
2017-02-21T07:33:06.977Z,16.39
2017-02-21T07:34:16.735Z,16.24
2017-02-21T07:35:26.295Z,16.35
2017-02-21T07:36:36.505Z,16.39
2017-02-21T07:37:45.823Z,16.42
2017-02-21T07:38:56.052Z,16.46
2017-02-21T07:40:05.799Z,16.39
2017-02-21T07:41:16.054Z,16.48
2017-02-21T07:42:25.803Z,16.43
2017-02-21T07:43:35.136Z,16.41
2017-02-21T07:44:44.885Z,16.48
2017-02-21T07:45:55.070Z,16.42
2017-02-21T07:47:05.031Z,16.39
2017-02-21T07:48:14.369Z,16.39
2017-02-21T07:49:24.165Z,16.45
2017-02-21T07:50:33.951Z,16.53
2017-02-21T07:51:44.139Z,16.5
2017-02-21T07:52:54.821Z,16.46
2017-02-21T07:54:05.010Z,16.49
2017-02-21T07:55:14.773Z,16.53
2017-02-21T07:56:24.521Z,16.49
2017-02-21T07:57:34.262Z,16.53
2017-02-21T07:58:44.510Z,16.48
2017-02-21T07:59:55.145Z,16.53
2017-02-21T08:01:04.472Z,16.49
2017-02-21T08:02:14.695Z,16.38
2017-02-21T08:03:24.030Z,16.56
2017-02-21T08:04:34.279Z,16.39
2017-02-21T08:05:44.473Z,16.52
2017-02-21T08:06:53.788Z,16.43
2017-02-21T08:08:03.111Z,16.46
2017-02-21T08:09:12.862Z,16.39
2017-02-21T08:10:22.231Z,16.42
2017-02-21T08:11:32.008Z,16.41
2017-02-21T08:12:41.798Z,16.52
2017-02-21T08:13:51.569Z,16.45
2017-02-21T08:15:01.319Z,16.52
2017-02-21T08:16:12.167Z,16.5
2017-02-21T08:17:21.486Z,16.5
2017-02-21T08:18:30.795Z,16.66
2017-02-21T08:19:40.996Z,16.61
2017-02-21T08:20:50.748Z,16.61
2017-02-21T08:22:00.125Z,16.63
2017-02-21T08:23:09.448Z,16.67
2017-02-21T08:24:19.665Z,16.68
2017-02-21T08:25:28.984Z,16.7
2017-02-21T08:26:39.177Z,16.63
2017-02-21T08:27:49.124Z,16.68
2017-02-21T08:28:58.517Z,16.75
2017-02-21T08:30:08.269Z,16.78
2017-02-21T08:31:18.475Z,16.81
2017-02-21T08:32:27.784Z,16.91
2017-02-21T08:33:37.153Z,16.89
2017-02-21T08:34:46.927Z,16.91
2017-02-21T08:35:57.131Z,16.97
2017-02-21T08:37:06.892Z,17.03
2017-02-21T08:38:16.201Z,17.08
2017-02-21T08:39:25.599Z,17.04
2017-02-21T08:40:34.926Z,17.07
2017-02-21T08:41:44.713Z,17.07
2017-02-21T08:42:54.924Z,17.07
2017-02-21T08:44:04.691Z,17.08
2017-02-21T08:45:14.052Z,17.07
2017-02-21T08:46:23.805Z,17.03
2017-02-21T08:47:33.143Z,17.01
2017-02-21T08:48:42.472Z,16.97
2017-02-21T08:49:52.675Z,16.98
2017-02-21T08:51:03.386Z,17.01
2017-02-21T08:52:12.705Z,16.96
2017-02-21T08:53:22.492Z,16.94
2017-02-21T08:54:31.825Z,16.93
2017-02-21T08:55:41.565Z,16.98
2017-02-21T08:56:52.258Z,17.07
2017-02-21T08:58:02.015Z,16.98
2017-02-21T08:59:12.195Z,16.98
2017-02-21T09:00:22.365Z,16.97
2017-02-21T09:01:32.112Z,17.06
2017-02-21T09:02:41.521Z,17.03
2017-02-21T09:03:51.725Z,17.07
2017-02-21T09:05:01.922Z,17.11
2017-02-21T09:06:11.689Z,17.12
2017-02-21T09:07:21.440Z,17
2017-02-21T09:08:32.119Z,17.08
2017-02-21T09:09:41.439Z,17.06
2017-02-21T09:10:51.216Z,17.04
2017-02-21T09:12:01.414Z,16.96
2017-02-21T09:13:11.176Z,16.93
2017-02-21T09:14:20.997Z,17.07
2017-02-21T09:15:30.757Z,17.03
2017-02-21T09:16:40.518Z,17.07
2017-02-21T09:17:50.274Z,17.12
2017-02-21T09:19:00.897Z,17.04
2017-02-21T09:20:10.693Z,17.07
2017-02-21T09:21:20.892Z,17.12
2017-02-21T09:22:30.205Z,17.01
2017-02-21T09:23:39.962Z,17.08
2017-02-21T09:24:50.151Z,17.12
2017-02-21T09:26:00.387Z,17.19
2017-02-21T09:27:10.145Z,17.21
2017-02-21T09:28:19.898Z,17.26
2017-02-21T09:29:29.639Z,17.21
2017-02-21T09:30:39.405Z,17.23
2017-02-21T09:31:49.214Z,17.25
2017-02-21T09:32:58.537Z,17.28
2017-02-21T09:34:08.300Z,17.25
2017-02-21T09:35:18.050Z,17.28
2017-02-21T09:36:27.803Z,17.31
2017-02-21T09:37:38.270Z,17.38
2017-02-21T09:38:47.591Z,17.34
2017-02-21T09:39:57.336Z,17.4
2017-02-21T09:41:07.551Z,17.38
2017-02-21T09:42:17.336Z,17.46
2017-02-21T09:43:27.141Z,17.52
2017-02-21T09:44:36.470Z,17.58
2017-02-21T09:45:46.226Z,17.58
2017-02-21T09:46:55.980Z,17.64
2017-02-21T09:48:05.721Z,17.72
2017-02-21T09:49:15.134Z,17.71
2017-02-21T09:50:24.468Z,17.81
2017-02-21T09:51:33.813Z,17.77
2017-02-21T09:52:43.164Z,17.92
2017-02-21T09:53:53.790Z,17.89
2017-02-21T09:55:04.696Z,17.97
2017-02-21T09:56:14.037Z,17.97
2017-02-21T09:57:23.819Z,18.02
2017-02-21T09:58:33.166Z,18.02
2017-02-21T09:59:42.911Z,18.12
2017-02-21T10:00:53.140Z,18.25
2017-02-21T10:02:03.367Z,18.32
2017-02-21T10:03:12.752Z,18.35
2017-02-21T10:04:22.513Z,18.41
2017-02-21T10:05:31.838Z,18.41
2017-02-21T10:06:41.203Z,18.39
2017-02-21T10:07:50.965Z,18.33
2017-02-21T10:09:00.730Z,18.42
2017-02-21T10:10:10.505Z,18.3
2017-02-21T10:11:19.824Z,18.39
2017-02-21T10:12:29.190Z,18.32
2017-02-21T10:13:38.549Z,18.35
2017-02-21T10:14:48.748Z,18.39
2017-02-21T10:15:58.953Z,18.35
2017-02-21T10:17:09.130Z,18.26
2017-02-21T10:18:18.503Z,18.21
2017-02-21T10:19:28.696Z,18.26
2017-02-21T10:20:38.906Z,18.14
2017-02-21T10:21:48.701Z,18.07
2017-02-21T10:22:58.456Z,18.07
2017-02-21T10:24:09.286Z,18.12
2017-02-21T10:25:19.066Z,18.25
2017-02-21T10:26:29.280Z,18.25
2017-02-21T10:27:39.901Z,18.17
2017-02-21T10:28:49.683Z,18.25
2017-02-21T10:29:59.050Z,18.17
2017-02-21T10:31:09.269Z,18.2
2017-02-21T10:32:18.611Z,18.18
2017-02-21T10:33:29.248Z,18.18
2017-02-21T10:34:38.996Z,18.2
2017-02-21T10:35:48.398Z,18.25
2017-02-21T10:36:57.715Z,18.2
2017-02-21T10:38:07.914Z,18.15
2017-02-21T10:39:17.693Z,18.15
2017-02-21T10:40:27.447Z,18.08
2017-02-21T10:41:37.706Z,18.07
2017-02-21T10:42:47.897Z,18.03
2017-02-21T10:43:57.659Z,18.02
2017-02-21T10:45:06.999Z,18
2017-02-21T10:46:16.332Z,18.02
2017-02-21T10:47:26.590Z,18
2017-02-21T10:48:36.357Z,18.02
2017-02-21T10:49:46.108Z,17.95
2017-02-21T10:50:55.873Z,18
2017-02-21T10:52:05.177Z,17.99
2017-02-21T10:53:15.436Z,18.05
2017-02-21T10:54:25.640Z,17.95
2017-02-21T10:55:35.399Z,17.95
2017-02-21T10:56:45.152Z,17.87
2017-02-21T10:57:54.520Z,17.97
2017-02-21T10:59:04.777Z,17.93
2017-02-21T11:00:15.863Z,17.97
2017-02-21T11:01:26.512Z,17.93
2017-02-21T11:02:36.261Z,17.84
2017-02-21T11:03:46.469Z,17.89
2017-02-21T11:04:56.709Z,17.84
2017-02-21T11:06:06.465Z,17.81
2017-02-21T11:07:15.815Z,17.82
2017-02-21T11:08:26.052Z,17.77
2017-02-21T11:09:36.260Z,17.81
2017-02-21T11:10:46.542Z,17.86
2017-02-21T11:11:57.183Z,17.84
2017-02-21T11:13:07.400Z,17.81
2017-02-21T11:14:18.466Z,17.87
2017-02-21T11:15:28.238Z,18
2017-02-21T11:16:38.492Z,17.95
2017-02-21T11:17:48.694Z,18.03
2017-02-21T11:18:58.481Z,18.14
2017-02-21T11:20:08.227Z,18.2
2017-02-21T11:21:19.310Z,18.36
2017-02-21T11:22:29.127Z,18.45
2017-02-21T11:23:38.886Z,18.45
2017-02-21T11:24:49.069Z,18.44
2017-02-21T11:25:58.409Z,18.5
2017-02-21T11:27:07.739Z,18.44
2017-02-21T11:28:18.001Z,18.42
2017-02-21T11:29:28.226Z,18.5
2017-02-21T11:30:38.420Z,18.52
2017-02-21T11:31:47.752Z,18.5
2017-02-21T11:32:57.961Z,18.44
2017-02-21T11:34:07.809Z,18.5
2017-02-21T11:35:18.460Z,18.48
2017-02-21T11:36:28.242Z,18.48
2017-02-21T11:37:37.550Z,18.45
2017-02-21T11:38:46.876Z,18.41
2017-02-21T11:39:56.688Z,18.42
2017-02-21T11:41:06.017Z,18.55
2017-02-21T11:42:16.210Z,18.44
2017-02-21T11:43:26.408Z,18.62
2017-02-21T11:44:36.154Z,18.55
2017-02-21T11:45:45.967Z,18.54
2017-02-21T11:46:56.163Z,18.55
2017-02-21T11:48:05.490Z,18.48
2017-02-21T11:49:15.707Z,18.51
2017-02-21T11:50:25.460Z,18.42
2017-02-21T11:51:35.734Z,18.39
2017-02-21T11:52:45.947Z,18.33
2017-02-21T11:53:55.266Z,18.36
2017-02-21T11:55:05.013Z,18.37
2017-02-21T11:56:14.347Z,18.32
2017-02-21T11:57:24.603Z,18.32
2017-02-21T11:58:34.374Z,18.33
2017-02-21T11:59:44.620Z,18.32
2017-02-21T12:00:54.367Z,18.33
2017-02-21T12:02:04.577Z,18.21
2017-02-21T12:03:14.369Z,18.2
2017-02-21T12:04:24.169Z,18.26
2017-02-21T12:05:34.384Z,18.14
2017-02-21T12:06:44.593Z,18.12
2017-02-21T12:07:54.786Z,18.11
2017-02-21T12:09:05.518Z,18.07
2017-02-21T12:10:15.757Z,18.11
2017-02-21T12:11:25.533Z,18.11
2017-02-21T12:12:36.160Z,18.03
2017-02-21T12:13:45.924Z,18.17
2017-02-21T12:14:55.310Z,18.23
2017-02-21T12:16:05.951Z,18.2
2017-02-21T12:17:15.704Z,18.26
2017-02-21T12:18:26.334Z,18.32
2017-02-21T12:19:36.549Z,18.29
2017-02-21T12:20:46.792Z,18.32
2017-02-21T12:21:56.576Z,18.23
2017-02-21T12:23:06.766Z,18.26
2017-02-21T12:24:16.975Z,18.21
2017-02-21T12:25:26.289Z,18.2
2017-02-21T12:26:36.142Z,18.15
2017-02-21T12:27:45.456Z,18.21
2017-02-21T12:28:55.199Z,18.23
2017-02-21T12:30:04.985Z,18.23
2017-02-21T12:31:15.613Z,18.2
2017-02-21T12:32:25.867Z,18.25
2017-02-21T12:33:35.620Z,18.2
2017-02-21T12:34:45.835Z,18.2
2017-02-21T12:35:55.610Z,18.2
2017-02-21T12:37:04.924Z,18.2
2017-02-21T12:38:15.170Z,18.25
2017-02-21T12:39:24.484Z,18.23
2017-02-21T12:40:33.805Z,18.2
2017-02-21T12:41:43.578Z,18.35
2017-02-21T12:42:53.347Z,18.27
2017-02-21T12:44:02.711Z,18.3
2017-02-21T12:45:12.472Z,18.35
2017-02-21T12:46:23.109Z,18.33
2017-02-21T12:47:33.740Z,18.33
2017-02-21T12:48:43.953Z,18.39
2017-02-21T12:49:54.363Z,18.36
2017-02-21T12:51:04.143Z,18.36
2017-02-21T12:52:14.361Z,18.51
2017-02-21T12:53:24.594Z,18.48
2017-02-21T12:54:34.799Z,18.39
2017-02-21T12:55:45.057Z,18.42
2017-02-21T12:56:55.258Z,18.37
2017-02-21T12:58:05.047Z,18.52
2017-02-21T12:59:14.815Z,18.48
2017-02-21T13:00:25.000Z,18.45
2017-02-21T13:01:35.375Z,18.45
2017-02-21T13:02:45.139Z,18.5
2017-02-21T13:03:54.899Z,18.48
2017-02-21T13:05:05.989Z,18.44
2017-02-21T13:06:15.735Z,18.36
2017-02-21T13:07:25.117Z,18.36
2017-02-21T13:08:35.318Z,18.32
2017-02-21T13:09:45.499Z,18.33
2017-02-21T13:10:54.840Z,18.18
2017-02-21T13:12:04.622Z,18.21
2017-02-21T13:13:14.587Z,18.2
2017-02-21T13:14:23.907Z,18.12
2017-02-21T13:15:33.677Z,18.1
2017-02-21T13:16:42.989Z,18.14
2017-02-21T13:17:53.193Z,18.05
2017-02-21T13:19:03.885Z,17.93
2017-02-21T13:20:13.233Z,18
2017-02-21T13:21:23.443Z,17.9
2017-02-21T13:22:33.659Z,17.97
2017-02-21T13:23:44.295Z,17.92
2017-02-21T13:24:53.753Z,17.87
2017-02-21T13:26:03.067Z,17.84
2017-02-21T13:27:13.276Z,17.81
2017-02-21T13:28:23.905Z,17.84
2017-02-21T13:29:33.659Z,17.87
2017-02-21T13:30:43.663Z,17.82
2017-02-21T13:31:53.435Z,17.71
2017-02-21T13:33:04.098Z,17.71
2017-02-21T13:34:13.403Z,17.72
2017-02-21T13:35:23.160Z,17.71
2017-02-21T13:36:33.404Z,17.78
2017-02-21T13:37:43.585Z,17.81
2017-02-21T13:38:53.783Z,17.92
2017-02-21T13:40:03.555Z,17.96
2017-02-21T13:41:13.305Z,18.02
2017-02-21T13:42:22.726Z,18.14
2017-02-21T13:43:32.486Z,18.21
2017-02-21T13:44:43.131Z,18.23
2017-02-21T13:45:52.450Z,18.35
2017-02-21T13:47:02.207Z,18.29
2017-02-21T13:48:12.464Z,18.35
2017-02-21T13:49:22.209Z,18.23
2017-02-21T13:50:31.979Z,18.23
2017-02-21T13:51:42.197Z,18.2
2017-02-21T13:52:51.521Z,18.18
2017-02-21T13:54:01.774Z,18.23
2017-02-21T13:55:11.979Z,18.14
2017-02-21T13:56:21.316Z,18.15
2017-02-21T13:57:31.512Z,18.08
2017-02-21T13:58:41.717Z,18.12
2017-02-21T13:59:51.548Z,18.1
2017-02-21T14:01:01.332Z,18.11
2017-02-21T14:02:11.981Z,18.11
2017-02-21T14:03:22.183Z,18.03
2017-02-21T14:04:31.938Z,18.07
2017-02-21T14:05:42.177Z,18.11
2017-02-21T14:06:51.953Z,18.05
2017-02-21T14:08:02.164Z,18.07
2017-02-21T14:09:11.481Z,18.03
2017-02-21T14:10:21.680Z,18.03
2017-02-21T14:11:31.946Z,18.05
2017-02-21T14:12:41.247Z,18.07
2017-02-21T14:13:51.893Z,18
2017-02-21T14:15:01.673Z,18.08
2017-02-21T14:16:12.338Z,18.05
2017-02-21T14:17:22.136Z,18.08
2017-02-21T14:18:31.900Z,18.03
2017-02-21T14:19:42.967Z,17.99
2017-02-21T14:20:52.708Z,17.99
2017-02-21T14:22:02.461Z,18.02
2017-02-21T14:23:12.259Z,17.97
2017-02-21T14:24:22.448Z,17.99
2017-02-21T14:25:32.217Z,18.07
2017-02-21T14:26:42.406Z,18.02
2017-02-21T14:27:52.618Z,18
2017-02-21T14:29:02.571Z,17.96
2017-02-21T14:30:12.332Z,17.97
2017-02-21T14:31:22.103Z,17.95
2017-02-21T14:32:31.416Z,17.95
2017-02-21T14:33:40.735Z,17.93
2017-02-21T14:34:50.550Z,18
2017-02-21T14:36:00.754Z,17.92
2017-02-21T14:37:10.509Z,17.9
2017-02-21T14:38:20.245Z,17.93
2017-02-21T14:40:38.753Z,17.89
2017-02-21T14:41:48.069Z,17.82
2017-02-21T14:42:57.381Z,17.78
2017-02-21T14:44:08.446Z,17.84
2017-02-21T14:45:18.201Z,17.82
2017-02-21T14:46:27.758Z,17.84
2017-02-21T14:47:37.075Z,17.78
2017-02-21T14:48:46.828Z,17.81
2017-02-21T14:49:56.588Z,17.77
2017-02-21T14:51:07.661Z,17.74
2017-02-21T14:52:17.126Z,17.7
2017-02-21T14:53:28.218Z,17.77
2017-02-21T14:54:37.545Z,17.7
2017-02-21T14:55:47.760Z,17.59
2017-02-21T14:56:57.949Z,17.54
2017-02-21T14:58:07.754Z,17.56
2017-02-21T14:59:17.071Z,17.62
2017-02-21T15:00:26.824Z,17.64
2017-02-21T15:01:36.144Z,17.55
2017-02-21T15:02:46.337Z,17.54
2017-02-21T15:03:56.582Z,17.55
2017-02-21T15:05:06.817Z,17.52